Time;durP1;ratioP1;P1;durP2;ratioP2;P2;SDS_P1;SDS_P2;PMS_P1;PMS_P2;Temp;Humidity;BMP_temperature;BMP_pressure;BME280_temperature;BME280_humidity;BME280_pressure;Samples;Min_cycle;Max_cycle;Signal;HPM_P1;HPM_P2
2023/03/15 00:00:36;;;;;;;4.95;1.00;;;8.10;99.90;;;;;;5110737;28;20050;-68
2023/03/15 00:03:09;;;;;;;0.85;0.85;;;8.10;99.90;;;;;;5129822;28;20050;-72
2023/03/15 00:05:45;;;;;;;1.48;1.10;;;8.10;63.20;;;;;;5123925;28;20531;-71
2023/03/15 00:08:18;;;;;;;1.98;0.93;;;8.10;99.90;;;;;;5079741;29;20054;-72
2023/03/15 00:10:52;;;;;;;1.42;0.85;;;8.10;99.90;;;;;;5124350;28;20240;-68
2023/03/15 00:13:24;;;;;;;1.25;0.77;;;8.10;99.90;;;;;;5129276;28;20349;-70
2023/03/15 00:15:59;;;;;;;2.25;1.00;;;8.10;99.90;;;;;;5114041;28;20377;-69
2023/03/15 00:18:34;;;;;;;3.80;0.90;;;8.00;99.90;;;;;;5134842;28;20050;-73
2023/03/15 00:21:08;;;;;;;4.38;1.10;;;8.00;98.10;;;;;;5118957;28;20056;-72
2023/03/15 00:23:40;;;;;;;0.95;0.93;;;8.00;99.90;;;;;;5101514;28;20436;-72
2023/03/15 00:26:14;;;;;;;0.70;0.70;;;8.00;99.90;;;;;;5130419;28;20610;-71
2023/03/15 00:28:46;;;;;;;0.60;0.60;;;8.00;99.90;;;;;;5119985;28;20355;-70
2023/03/15 00:31:24;;;;;;;1.13;1.00;;;8.00;88.50;;;;;;5129736;28;20412;-71
2023/03/15 00:33:58;;;;;;;1.25;1.00;;;8.00;82.80;;;;;;5083420;29;20593;-69
2023/03/15 00:36:34;;;;;;;2.75;1.00;;;8.00;25.50;;;;;;5111942;28;20046;-71
2023/03/15 00:39:05;;;;;;;1.15;0.82;;;8.00;74.50;;;;;;5117084;28;20042;-70
2023/03/15 00:41:40;;;;;;;1.10;0.90;;;8.00;10.50;;;;;;5097597;29;20065;-72
2023/03/15 00:44:12;;;;;;;0.90;0.90;;;7.90;18.40;;;;;;5098498;29;20057;-70
2023/03/15 00:46:48;;;;;;;1.25;1.00;;;7.90;99.90;;;;;;5112999;28;20027;-71
2023/03/15 00:49:23;;;;;;;2.78;1.20;;;7.90;99.90;;;;;;5095764;29;20047;-71
2023/03/15 00:51:56;;;;;;;;;;;7.90;99.90;;;;;;5100826;29;20039;-68
2023/03/15 00:54:28;;;;;;;2.80;1.00;;;7.80;99.90;;;;;;5086296;28;20129;-70
2023/03/15 00:57:01;;;;;;;2.80;1.13;;;7.80;99.90;;;;;;5117866;28;20043;-69
2023/03/15 00:59:33;;;;;;;0.85;0.82;;;7.80;1.00;;;;;;5117812;28;20054;-71
2023/03/15 01:02:08;;;;;;;1.50;1.23;;;7.80;1.00;;;;;;5154829;23;20451;-65
2023/03/15 01:04:39;;;;;;;2.70;1.30;;;7.70;1.00;;;;;;5097582;28;20037;-66
2023/03/15 01:07:12;;;;;;;0.88;0.88;;;7.70;1.00;;;;;;5096945;28;20057;-65
2023/03/15 01:09:44;;;;;;;1.42;1.00;;;7.70;1.00;;;;;;5089566;28;20071;-64
2023/03/15 01:12:17;;;;;;;1.55;1.02;;;7.70;1.00;;;;;;5133911;28;20302;-65
2023/03/15 01:14:51;;;;;;;1.42;1.02;;;7.60;1.00;;;;;;5109520;28;20054;-65
2023/03/15 01:17:25;;;;;;;1.20;0.75;;;7.60;1.00;;;;;;5082788;28;20039;-64
2023/03/15 01:20:00;;;;;;;1.20;1.00;;;7.70;1.00;;;;;;5133779;28;20049;-64
2023/03/15 01:22:35;;;;;;;2.17;0.95;;;7.60;1.00;;;;;;5114985;28;20271;-67
2023/03/15 01:25:10;;;;;;;1.17;0.70;;;7.70;1.00;;;;;;5129334;28;20041;-64
2023/03/15 01:27:45;;;;;;;2.63;1.27;;;7.70;1.00;;;;;;5131835;28;20042;-66
2023/03/15 01:30:16;;;;;;;;;;;7.70;1.00;;;;;;5082615;28;20046;-64
2023/03/15 01:32:50;;;;;;;2.38;0.88;;;7.60;1.00;;;;;;5116103;28;19914;-64
2023/03/15 01:35:24;;;;;;;1.83;1.40;;;7.60;1.00;;;;;;5121553;28;20034;-65
2023/03/15 01:37:56;;;;;;;2.10;1.13;;;7.60;1.00;;;;;;5136898;28;20046;-64
2023/03/15 01:40:27;;;;;;;1.38;0.95;;;7.60;1.00;;;;;;5129888;28;20055;-64
2023/03/15 01:43:05;;;;;;;1.67;1.10;;;7.60;1.00;;;;;;5110133;28;20054;-65
2023/03/15 01:45:58;;;;;;;1.00;1.00;;;7.60;1.00;;;;;;5125281;28;20049;-64
2023/03/15 01:48:43;;;;;;;0.90;0.80;;;7.60;1.00;;;;;;5142136;28;20238;-66
2023/03/15 01:51:35;;;;;;;8.50;1.15;;;7.60;99.90;;;;;;5130074;28;20544;-64
2023/03/15 01:54:39;;;;;;;1.73;1.00;;;7.60;99.90;;;;;;5133691;28;20052;-64
2023/03/15 01:57:21;;;;;;;1.08;1.00;;;7.50;99.90;;;;;;5130637;28;20076;-64
2023/03/15 02:00:10;;;;;;;1.98;0.80;;;7.50;99.90;;;;;;5118756;28;20354;-64
2023/03/15 02:03:05;;;;;;;1.05;1.02;;;7.50;99.90;;;;;;5150605;28;20056;-65
2023/03/15 02:05:48;;;;;;;2.20;0.90;;;7.40;1.00;;;;;;5133548;28;20054;-64
2023/03/15 02:08:28;;;;;;;2.45;1.00;;;7.40;1.00;;;;;;5115304;28;20034;-65
2023/03/15 02:11:06;;;;;;;1.08;1.00;;;7.20;1.00;;;;;;5115697;28;20047;-64
2023/03/15 02:13:38;;;;;;;1.30;1.20;;;7.10;1.00;;;;;;5116391;28;20038;-65
2023/03/15 02:16:10;;;;;;;1.02;1.02;;;6.90;99.90;;;;;;5081816;28;20050;-65
2023/03/15 02:18:45;;;;;;;1.15;1.13;;;6.80;99.90;;;;;;5085147;28;20066;-65
2023/03/15 02:21:29;;;;;;;1.38;1.27;;;6.60;99.90;;;;;;5115950;28;20066;-65
2023/03/15 02:24:11;;;;;;;0.85;0.85;;;6.50;99.90;;;;;;5133056;28;20050;-64
2023/03/15 02:26:55;;;;;;;1.42;0.95;;;6.40;99.90;;;;;;5122932;28;20084;-65
2023/03/15 02:29:28;;;;;;;1.90;1.10;;;6.30;99.90;;;;;;5085074;28;20035;-65
2023/03/15 02:32:03;;;;;;;1.20;1.10;;;6.30;1.00;;;;;;5114550;28;20347;-64
2023/03/15 02:34:34;;;;;;;1.70;1.60;;;6.20;1.00;;;;;;5083227;28;20142;-64
2023/03/15 02:37:08;;;;;;;1.30;1.20;;;6.20;1.00;;;;;;5099895;28;20030;-63
2023/03/15 02:39:43;;;;;;;1.38;1.27;;;6.10;1.00;;;;;;5115354;28;20564;-65
2023/03/15 02:42:19;;;;;;;1.50;1.40;;;6.00;1.00;;;;;;5099449;28;20061;-65
2023/03/15 02:44:55;;;;;;;1.50;1.40;;;6.00;1.00;;;;;;5099478;28;20061;-66
2023/03/15 02:47:35;;;;;;;1.15;1.05;;;6.00;1.00;;;;;;5097538;28;20180;-65
2023/03/15 02:50:22;;;;;;;1.23;1.13;;;5.90;1.00;;;;;;5098362;28;20034;-67
2023/03/15 02:53:15;;;;;;;1.80;1.70;;;5.80;1.00;;;;;;5121005;28;20477;-66
2023/03/15 02:55:47;;;;;;;1.67;1.58;;;5.80;1.00;;;;;;5093721;28;20043;-64
2023/03/15 02:58:19;;;;;;;2.08;1.60;;;5.70;1.00;;;;;;5097280;28;20043;-67
2023/03/15 03:00:52;;;;;;;1.38;1.27;;;5.70;1.00;;;;;;5113455;28;20038;-65
2023/03/15 03:03:26;;;;;;;1.50;1.40;;;5.70;1.00;;;;;;5104827;28;20050;-65
2023/03/15 03:05:57;;;;;;;1.63;1.17;;;5.60;1.00;;;;;;5093100;28;20283;-65
2023/03/15 03:08:31;;;;;;;1.50;1.40;;;5.60;1.00;;;;;;5132162;28;20615;-64
2023/03/15 03:11:04;;;;;;;2.10;1.88;;;5.70;1.00;;;;;;5115925;28;20023;-66
2023/03/15 03:13:46;;;;;;;1.85;1.70;;;5.70;1.00;;;;;;5098912;28;20050;-64
2023/03/15 03:16:23;;;;;;;1.80;1.42;;;5.60;1.00;;;;;;5082714;28;20446;-64
2023/03/15 03:18:58;;;;;;;1.60;1.40;;;5.60;1.00;;;;;;5113922;28;20038;-65
2023/03/15 03:21:32;;;;;;;1.70;1.60;;;5.50;1.00;;;;;;5098499;28;20355;-64
2023/03/15 03:24:06;;;;;;;2.38;2.17;;;5.50;1.00;;;;;;5114800;28;20037;-64
2023/03/15 03:26:45;;;;;;;2.88;1.80;;;5.50;1.00;;;;;;5100013;28;20045;-64
2023/03/15 03:29:17;;;;;;;1.85;1.67;;;5.50;1.00;;;;;;5113975;28;20050;-64
2023/03/15 03:31:56;;;;;;;1.98;1.77;;;5.40;1.00;;;;;;5128945;28;20041;-65
2023/03/15 03:34:38;;;;;;;1.70;1.60;;;5.40;1.00;;;;;;5115186;28;20046;-65
2023/03/15 03:37:17;;;;;;;3.58;1.63;;;5.30;1.00;;;;;;5115047;28;20141;-65
2023/03/15 03:39:51;;;;;;;2.38;1.73;;;5.30;1.00;;;;;;5099080;28;20580;-66
2023/03/15 03:42:28;;;;;;;2.00;1.85;;;5.30;1.00;;;;;;5099620;28;20093;-65
2023/03/15 03:45:00;;;;;;;2.38;1.85;;;5.30;1.00;;;;;;5100449;28;20258;-65
2023/03/15 03:47:33;;;;;;;1.80;1.60;;;5.20;1.00;;;;;;5100391;28;20057;-65
2023/03/15 03:50:07;;;;;;;3.28;1.98;;;5.20;1.00;;;;;;5131475;28;20446;-65
2023/03/15 03:52:47;;;;;;;2.38;1.75;;;5.10;1.00;;;;;;5083103;28;20047;-65
2023/03/15 03:55:18;;;;;;;2.38;2.10;;;5.10;1.00;;;;;;5141387;28;20062;-66
2023/03/15 03:57:55;;;;;;;2.17;1.98;;;5.20;1.00;;;;;;5124771;28;20420;-65
2023/03/15 04:00:27;;;;;;;2.10;1.75;;;5.10;1.00;;;;;;5112892;28;20027;-65
2023/03/15 04:03:01;;;;;;;2.03;1.60;;;5.10;1.00;;;;;;5102675;28;20054;-66
2023/03/15 04:05:35;;;;;;;4.38;2.63;;;5.00;1.00;;;;;;5104746;28;20208;-66
2023/03/15 04:08:06;;;;;;;3.78;2.03;;;5.10;1.00;;;;;;5097544;28;20046;-65
2023/03/15 04:10:42;;;;;;;2.47;2.28;;;5.00;1.00;;;;;;5121833;28;20042;-65
2023/03/15 04:13:16;;;;;;;2.55;2.30;;;5.00;1.00;;;;;;5115033;28;20047;-64
2023/03/15 04:15:49;;;;;;;2.10;1.88;;;5.00;1.00;;;;;;5114215;28;20219;-65
2023/03/15 04:18:23;;;;;;;3.45;2.15;;;5.00;1.00;;;;;;5132151;28;20042;-64
2023/03/15 04:20:57;;;;;;;2.70;2.22;;;5.00;1.00;;;;;;5116142;28;20035;-64
2023/03/15 04:23:28;;;;;;;2.10;1.90;;;5.00;1.00;;;;;;5148348;28;20042;-64
2023/03/15 04:26:04;;;;;;;2.38;2.17;;;4.90;1.00;;;;;;5131569;28;20058;-64
2023/03/15 04:28:37;;;;;;;3.97;2.28;;;4.90;1.00;;;;;;5134024;28;20031;-64
2023/03/15 04:31:13;;;;;;;4.13;2.28;;;4.80;1.00;;;;;;5130245;28;20416;-64
2023/03/15 04:33:46;;;;;;;3.45;1.85;;;4.90;1.00;;;;;;5133095;28;20052;-64
2023/03/15 04:36:24;;;;;;;2.30;2.10;;;4.80;1.00;;;;;;5139594;28;20043;-65
2023/03/15 04:39:04;;;;;;;3.40;2.10;;;4.70;1.00;;;;;;5084873;28;20043;-64
2023/03/15 04:41:38;;;;;;;4.85;1.65;;;4.70;99.90;;;;;;5100776;28;20034;-64
2023/03/15 04:44:09;;;;;;;5.40;1.63;;;4.70;99.90;;;;;;5115624;28;20057;-65
2023/03/15 04:46:42;;;;;;;1.70;1.38;;;4.70;99.90;;;;;;5084046;28;20481;-65
2023/03/15 04:49:14;;;;;;;5.05;1.45;;;4.70;99.90;;;;;;5098074;28;20031;-66
2023/03/15 04:51:48;;;;;;;3.13;1.40;;;4.60;99.90;;;;;;5114740;28;20046;-64
2023/03/15 04:54:23;;;;;;;;;;;4.60;4.60;;;;;;5099323;28;20246;-65
2023/03/15 04:56:54;;;;;;;;;;;4.60;1.00;;;;;;5125815;28;19917;-64
2023/03/15 04:59:26;;;;;;;2.60;1.58;;;4.50;1.00;;;;;;5114730;28;19925;-64
2023/03/15 05:02:03;;;;;;;2.47;0.90;;;4.60;1.00;;;;;;5099857;28;20057;-65
2023/03/15 05:04:34;;;;;;;2.08;1.27;;;4.50;1.00;;;;;;5114498;28;20040;-65
2023/03/15 05:07:08;;;;;;;5.25;1.60;;;4.50;1.00;;;;;;5124150;28;20637;-64
2023/03/15 05:09:39;;;;;;;2.05;1.58;;;4.50;1.00;;;;;;5102278;28;20030;-63
2023/03/15 05:12:13;;;;;;;8.27;1.50;;;4.50;1.00;;;;;;5116055;28;20573;-64
2023/03/15 05:14:46;;;;;;;3.88;1.35;;;4.50;1.00;;;;;;5119268;28;20031;-63
2023/03/15 05:17:21;;;;;;;2.53;1.10;;;4.40;1.00;;;;;;5132642;28;20043;-67
2023/03/15 05:19:52;;;;;;;3.10;0.93;;;4.40;1.00;;;;;;5117160;28;20058;-63
2023/03/15 05:22:27;;;;;;;1.00;0.88;;;4.40;1.00;;;;;;5131922;28;20046;-64
2023/03/15 05:25:01;;;;;;;4.25;1.00;;;4.40;99.90;;;;;;5116404;28;20501;-66
2023/03/15 05:27:33;;;;;;;1.60;1.38;;;4.30;99.90;;;;;;5082156;28;20408;-66
2023/03/15 05:30:07;;;;;;;3.60;1.55;;;4.40;99.90;;;;;;5133405;28;20068;-65
2023/03/15 05:32:39;;;;;;;3.25;1.05;;;4.40;99.90;;;;;;5116196;28;20066;-65
2023/03/15 05:35:16;;;;;;;3.08;1.92;;;4.30;99.90;;;;;;5134664;28;20045;-65
2023/03/15 05:37:50;;;;;;;3.08;1.00;;;4.30;99.90;;;;;;5097554;28;20077;-65
2023/03/15 05:40:22;;;;;;;3.00;1.45;;;4.30;99.90;;;;;;5114572;28;20046;-64
2023/03/15 05:42:55;;;;;;;2.45;1.13;;;4.30;99.90;;;;;;5113809;28;20042;-64
2023/03/15 05:45:26;;;;;;;2.88;1.05;;;4.20;99.90;;;;;;5080242;29;20494;-65
2023/03/15 05:47:58;;;;;;;1.38;0.95;;;4.20;99.90;;;;;;5084864;28;20552;-64
2023/03/15 05:50:33;;;;;;;5.60;1.40;;;4.20;55.90;;;;;;5116357;28;20676;-64
2023/03/15 05:53:07;;;;;;;2.05;0.85;;;4.20;1.00;;;;;;5086176;28;20046;-66
2023/03/15 05:55:41;;;;;;;6.18;1.45;;;4.20;1.00;;;;;;5120482;28;20048;-65
2023/03/15 05:58:16;;;;;;;2.42;0.90;;;4.20;1.00;;;;;;5117961;28;20043;-64
2023/03/15 06:00:48;;;;;;;3.88;1.25;;;4.20;1.00;;;;;;5115877;28;20397;-65
2023/03/15 06:03:22;;;;;;;6.32;1.13;;;4.20;1.00;;;;;;5117254;28;20047;-65
2023/03/15 06:05:59;;;;;;;2.67;1.00;;;4.20;1.00;;;;;;5075218;28;20059;-65
2023/03/15 06:08:34;;;;;;;1.90;0.95;;;4.20;1.00;;;;;;5094272;28;20299;-64
2023/03/15 06:11:06;;;;;;;5.75;1.08;;;4.20;1.00;;;;;;5114755;28;20557;-66
2023/03/15 06:13:55;;;;;;;0.68;0.65;;;4.20;1.00;;;;;;5114731;28;20054;-64
2023/03/15 06:16:27;;;;;;;4.95;1.08;;;4.20;1.00;;;;;;5116304;28;20051;-64
2023/03/15 06:18:58;;;;;;;2.30;0.95;;;4.30;1.00;;;;;;5102097;28;20034;-63
2023/03/15 06:21:30;;;;;;;7.53;1.80;;;4.20;1.00;;;;;;5100732;28;20283;-64
2023/03/15 06:24:05;;;;;;;2.70;1.05;;;4.30;1.00;;;;;;5135094;28;20041;-64
2023/03/15 06:26:39;;;;;;;3.53;1.02;;;4.40;1.00;;;;;;5081959;28;20054;-63
2023/03/15 06:29:10;;;;;;;3.50;1.08;;;4.40;1.00;;;;;;5101181;28;20042;-64
2023/03/15 06:31:48;;;;;;;1.80;1.10;;;4.50;1.00;;;;;;5115462;28;20035;-64
2023/03/15 06:34:20;;;;;;;2.72;1.42;;;4.50;1.00;;;;;;5117280;28;20031;-65
2023/03/15 06:36:54;;;;;;;2.72;0.80;;;4.60;1.00;;;;;;5079900;29;20046;-65
2023/03/15 06:39:26;;;;;;;4.53;1.58;;;4.70;1.00;;;;;;5077151;28;20057;-64
2023/03/15 06:42:01;;;;;;;5.07;1.67;;;4.70;99.90;;;;;;5116436;28;20054;-64
2023/03/15 06:44:36;;;;;;;5.47;1.38;;;4.80;1.00;;;;;;5133170;28;20034;-64
2023/03/15 06:47:13;;;;;;;1.15;0.98;;;4.80;1.00;;;;;;5098078;28;20045;-64
2023/03/15 06:49:49;;;;;;;2.08;1.05;;;5.00;1.00;;;;;;5125146;28;20247;-65
2023/03/15 06:52:20;;;;;;;3.50;0.90;;;5.10;1.00;;;;;;5141094;28;20038;-64
2023/03/15 06:54:52;;;;;;;3.40;1.48;;;4.90;1.00;;;;;;5085226;28;20064;-66
2023/03/15 06:57:26;;;;;;;2.25;1.00;;;4.90;1.00;;;;;;5105510;28;20209;-63
2023/03/15 06:59:57;;;;;;;2.65;1.20;;;4.80;1.00;;;;;;5097335;29;20053;-66
2023/03/15 07:02:32;;;;;;;1.55;0.65;;;4.90;1.00;;;;;;5119031;28;20051;-64
2023/03/15 07:05:07;;;;;;;2.85;0.93;;;4.90;99.90;;;;;;5102962;28;20078;-64
2023/03/15 07:07:41;;;;;;;3.00;0.93;;;5.00;99.90;;;;;;5116786;28;20043;-63
2023/03/15 07:10:12;;;;;;;1.95;0.98;;;4.80;1.00;;;;;;5100167;28;20057;-63
2023/03/15 07:12:44;;;;;;;4.50;1.20;;;4.80;1.00;;;;;;5116863;28;20048;-63
2023/03/15 07:15:16;;;;;;;4.15;1.10;;;4.80;1.00;;;;;;5098841;28;20046;-63
2023/03/15 07:17:50;;;;;;;1.42;0.85;;;5.00;1.00;;;;;;5116883;28;20054;-63
2023/03/15 07:20:22;;;;;;;1.30;0.93;;;5.00;1.00;;;;;;5116554;28;20053;-64
2023/03/15 07:22:53;;;;;;;5.75;1.23;;;5.20;1.00;;;;;;5115705;28;20502;-64
2023/03/15 07:25:25;;;;;;;3.65;1.10;;;5.10;1.00;;;;;;5132538;28;20045;-63
2023/03/15 07:28:00;;;;;;;1.70;0.90;;;5.00;1.00;;;;;;5100578;28;20046;-64
2023/03/15 07:30:33;;;;;;;6.15;1.23;;;4.80;1.00;;;;;;5114939;28;20267;-63
2023/03/15 07:33:06;;;;;;;1.98;0.80;;;4.90;1.00;;;;;;5115877;28;20568;-63
2023/03/15 07:35:38;;;;;;;2.85;1.15;;;5.00;1.00;;;;;;5114603;28;20051;-64
2023/03/15 07:38:10;;;;;;;4.72;0.90;;;5.00;1.00;;;;;;5098542;28;20046;-64
2023/03/15 07:40:42;;;;;;;3.75;0.98;;;5.10;99.90;;;;;;5133111;28;20337;-63
2023/03/15 07:43:13;;;;;;;0.68;0.60;;;5.10;99.90;;;;;;5116491;28;20042;-63
2023/03/15 07:45:45;;;;;;;1.13;0.70;;;5.20;99.90;;;;;;5112492;28;20103;-64
2023/03/15 07:48:16;;;;;;;3.13;0.93;;;5.20;99.90;;;;;;5116524;28;20049;-64
2023/03/15 07:50:48;;;;;;;3.08;0.77;;;5.20;99.90;;;;;;5133328;28;20041;-64
2023/03/15 07:53:21;;;;;;;4.90;0.90;;;5.20;99.90;;;;;;5133349;28;20033;-65
2023/03/15 07:55:54;;;;;;;3.38;0.90;;;5.20;99.90;;;;;;5116465;28;20038;-64
2023/03/15 07:58:26;;;;;;;5.40;1.40;;;5.10;1.00;;;;;;5115559;28;20035;-65
2023/03/15 08:01:00;;;;;;;1.27;0.88;;;5.20;1.00;;;;;;5127355;28;20045;-64
2023/03/15 08:03:35;;;;;;;;;;;5.20;1.00;;;;;;5095740;28;20054;-64
2023/03/15 08:06:09;;;;;;;1.30;0.95;;;5.20;1.00;;;;;;5120107;28;19933;-65
2023/03/15 08:08:41;;;;;;;3.60;1.10;;;5.20;90.00;;;;;;5115056;28;20043;-64
2023/03/15 08:11:12;;;;;;;4.95;1.10;;;5.30;99.90;;;;;;5098575;28;20049;-64
2023/03/15 08:13:43;;;;;;;3.22;1.02;;;5.40;1.00;;;;;;5114361;28;20047;-64
2023/03/15 08:16:15;;;;;;;2.10;0.93;;;5.40;1.00;;;;;;5095406;28;20042;-65
2023/03/15 08:18:46;;;;;;;2.42;1.23;;;5.70;1.00;;;;;;5098969;28;20216;-65
2023/03/15 08:21:21;;;;;;;2.10;1.10;;;5.90;1.00;;;;;;5114856;28;20038;-64
2023/03/15 08:23:52;;;;;;;5.57;1.67;;;6.10;1.00;;;;;;5098546;28;20041;-64
2023/03/15 08:26:23;;;;;;;2.55;1.10;;;6.20;1.00;;;;;;5132673;28;20412;-64
2023/03/15 08:28:55;;;;;;;1.73;1.10;;;6.10;1.00;;;;;;5132916;28;20042;-65
2023/03/15 08:31:29;;;;;;;3.65;1.30;;;5.90;1.00;;;;;;5114075;28;20532;-64
2023/03/15 08:34:01;;;;;;;5.13;1.30;;;5.80;1.00;;;;;;5100018;28;20034;-65
2023/03/15 08:36:33;;;;;;;1.88;1.20;;;5.90;1.00;;;;;;5115402;28;20043;-65
2023/03/15 08:39:04;;;;;;;3.78;1.08;;;5.90;1.00;;;;;;5103088;28;20053;-64
2023/03/15 08:41:36;;;;;;;1.45;0.95;;;6.00;99.90;;;;;;5135093;28;20037;-66
2023/03/15 08:44:08;;;;;;;10.68;1.50;;;6.20;99.90;;;;;;5118315;28;20061;-64
2023/03/15 08:46:39;;;;;;;1.88;0.88;;;6.20;99.90;;;;;;5084237;28;20043;-64
2023/03/15 08:49:11;;;;;;;9.13;1.65;;;6.10;99.90;;;;;;5107405;28;20051;-65
2023/03/15 08:51:42;;;;;;;2.33;1.00;;;6.20;1.00;;;;;;5132919;28;20047;-65
2023/03/15 08:54:14;;;;;;;4.05;1.27;;;6.20;1.00;;;;;;5134718;28;20253;-64
2023/03/15 08:56:46;;;;;;;6.28;1.38;;;6.20;1.00;;;;;;5095686;28;20041;-63
2023/03/15 08:59:17;;;;;;;2.50;1.23;;;6.20;1.00;;;;;;5102484;28;20324;-64
2023/03/15 09:01:52;;;;;;;4.63;1.58;;;6.50;1.00;;;;;;5109116;28;20061;-64
2023/03/15 09:04:23;;;;;;;;;;;6.60;1.00;;;;;;5092836;28;20259;-63
2023/03/15 09:06:55;;;;;;;1.38;1.20;;;6.40;1.00;;;;;;5118942;28;19918;-64
2023/03/15 09:09:26;;;;;;;3.15;1.35;;;6.40;1.00;;;;;;5135815;28;20037;-63
2023/03/15 09:11:58;;;;;;;5.38;1.20;;;6.50;1.00;;;;;;5102427;28;20039;-64
2023/03/15 09:14:29;;;;;;;3.47;1.27;;;6.80;1.00;;;;;;5119218;28;20034;-63
2023/03/15 09:17:01;;;;;;;3.60;1.17;;;6.90;1.00;;;;;;5114982;28;20454;-65
2023/03/15 09:19:33;;;;;;;3.92;1.58;;;6.70;1.00;;;;;;5134989;28;20073;-65
2023/03/15 09:22:07;;;;;;;3.78;1.38;;;6.70;1.00;;;;;;5101478;28;20292;-64
2023/03/15 09:24:40;;;;;;;2.97;1.15;;;7.10;1.00;;;;;;5118656;28;20053;-66
2023/03/15 09:27:15;;;;;;;2.53;1.37;;;7.70;1.00;;;;;;5135720;28;20030;-63
2023/03/15 09:29:47;;;;;;;3.45;1.23;;;7.60;1.00;;;;;;5103788;28;20279;-66
2023/03/15 09:32:21;;;;;;;1.83;1.10;;;7.20;1.00;;;;;;5134973;28;20023;-66
2023/03/15 09:34:53;;;;;;;2.28;1.85;;;6.90;99.90;;;;;;5101934;28;20250;-65
2023/03/15 09:37:25;;;;;;;2.55;1.15;;;7.00;99.90;;;;;;5101970;28;20041;-65
2023/03/15 09:39:56;;;;;;;5.20;1.25;;;7.30;99.90;;;;;;5135506;28;20097;-65
2023/03/15 09:42:37;;;;;;;4.53;1.30;;;7.10;99.90;;;;;;5118666;28;20162;-64
2023/03/15 09:45:55;;;;;;;5.85;1.23;;;7.20;99.90;;;;;;5115841;28;20042;-63
2023/03/15 09:49:16;;;;;;;3.72;1.45;;;7.60;99.90;;;;;;5135454;28;20692;-63
2023/03/15 09:52:00;;;;;;;3.15;1.17;;;7.40;99.90;;;;;;5100936;28;20043;-63
2023/03/15 09:54:46;;;;;;;4.85;1.30;;;7.20;99.90;;;;;;5118847;28;20053;-65
2023/03/15 09:57:46;;;;;;;7.18;1.20;;;6.70;1.00;;;;;;5107037;28;20503;-64
2023/03/15 10:00:53;;;;;;;2.00;0.82;;;6.80;99.90;;;;;;5108775;29;20047;-63
2023/03/15 10:03:35;;;;;;;2.85;1.20;;;6.80;1.00;;;;;;5096763;29;20047;-62
2023/03/15 10:06:23;;;;;;;7.07;1.60;;;6.90;1.00;;;;;;5108289;28;20055;-64
2023/03/15 10:09:02;;;;;;;2.55;1.00;;;7.40;1.00;;;;;;5117010;28;20042;-62
2023/03/15 10:11:54;;;;;;;1.95;1.35;;;7.60;99.90;;;;;;5133485;28;20038;-63
2023/03/15 10:15:18;;;;;;;7.95;1.80;;;7.20;1.00;;;;;;5135527;28;20465;-63
2023/03/15 10:17:58;;;;;;;1.55;1.45;;;7.10;34.90;;;;;;5134523;28;20255;-63
2023/03/15 10:20:40;;;;;;;3.35;1.50;;;7.40;1.00;;;;;;5133042;28;20042;-63
2023/03/15 10:23:22;;;;;;;2.38;1.30;;;7.70;1.00;;;;;;5100832;28;20048;-63
2023/03/15 10:25:57;;;;;;;4.40;1.77;;;7.80;1.00;;;;;;5138317;28;20047;-63
2023/03/15 10:28:32;;;;;;;3.38;1.50;;;8.20;15.50;;;;;;5115992;28;20030;-63
2023/03/15 10:31:19;;;;;;;7.22;1.45;;;8.80;1.00;;;;;;5115028;28;20035;-64
2023/03/15 10:33:52;;;;;;;8.68;1.63;;;9.00;1.00;;;;;;5100082;28;20232;-63
2023/03/15 10:36:25;;;;;;;2.78;1.08;;;8.70;1.00;;;;;;5100579;28;20039;-63
2023/03/15 10:38:58;;;;;;;1.85;1.45;;;8.30;1.00;;;;;;5114125;28;20052;-63
2023/03/15 10:41:48;;;;;;;2.53;1.42;;;8.70;1.00;;;;;;5115051;28;20049;-66
2023/03/15 10:44:25;;;;;;;2.80;0.93;;;8.80;1.00;;;;;;5096715;28;20064;-64
2023/03/15 10:47:08;;;;;;;3.92;1.30;;;9.20;99.90;;;;;;5097498;28;20046;-63
2023/03/15 10:49:43;;;;;;;2.25;1.10;;;9.30;1.00;;;;;;5097300;29;20065;-63
2023/03/15 10:52:37;;;;;;;5.03;1.13;;;9.20;1.00;;;;;;5075417;28;20042;-64
2023/03/15 10:55:17;;;;;;;2.53;1.35;;;9.20;1.00;;;;;;5115351;28;20327;-63
2023/03/15 10:58:01;;;;;;;1.75;1.05;;;9.20;1.00;;;;;;5119382;28;20033;-63
2023/03/15 11:00:35;;;;;;;2.47;1.05;;;9.00;1.00;;;;;;5110767;28;20047;-63
2023/03/15 11:03:20;;;;;;;;;;;9.80;99.90;;;;;;5111984;28;20393;-64
2023/03/15 11:05:58;;;;;;;4.53;1.55;;;10.10;1.00;;;;;;5089938;28;19918;-63
2023/03/15 11:08:41;;;;;;;4.85;1.25;;;8.90;1.00;;;;;;5094635;29;20039;-63
2023/03/15 11:11:12;;;;;;;2.72;1.38;;;8.50;1.00;;;;;;5094916;28;20201;-63
2023/03/15 11:14:00;;;;;;;1.95;1.20;;;9.00;4.20;;;;;;5114158;28;20045;-64
2023/03/15 11:16:37;;;;;;;4.65;1.58;;;9.50;1.00;;;;;;5126182;28;20019;-63
2023/03/15 11:19:18;;;;;;;5.97;1.75;;;9.30;99.90;;;;;;5099175;28;20173;-63
2023/03/15 11:21:50;;;;;;;2.80;1.40;;;9.30;99.90;;;;;;5117074;28;20035;-64
2023/03/15 11:24:29;;;;;;;7.07;1.98;;;9.30;99.90;;;;;;5101446;28;20042;-63
2023/03/15 11:27:11;;;;;;;3.08;2.00;;;9.60;99.90;;;;;;5102537;28;20047;-63
2023/03/15 11:29:48;;;;;;;2.63;1.40;;;9.20;61.00;;;;;;5114644;28;20054;-63
2023/03/15 11:32:30;;;;;;;3.70;1.67;;;9.50;9.90;;;;;;5096328;28;20057;-64
2023/03/15 11:35:07;;;;;;;2.97;1.52;;;9.80;1.00;;;;;;5082553;28;20053;-63
2023/03/15 11:37:46;;;;;;;4.20;1.50;;;10.00;1.00;;;;;;5098706;28;20049;-64
2023/03/15 11:40:55;;;;;;;3.75;1.60;;;9.40;1.00;;;;;;5114930;28;20037;-64
2023/03/15 11:44:06;;;;;;;5.78;2.13;;;9.30;99.90;;;;;;5114842;28;20053;-64
2023/03/15 11:47:03;;;;;;;5.15;1.77;;;9.40;1.00;;;;;;5126899;28;20071;-64
2023/03/15 11:49:47;;;;;;;4.75;1.42;;;9.60;1.00;;;;;;5082227;28;20038;-64
2023/03/15 11:52:22;;;;;;;1.92;1.55;;;9.80;1.00;;;;;;5129403;28;20030;-63
2023/03/15 11:55:00;;;;;;;2.88;1.67;;;10.10;1.00;;;;;;5130801;28;20077;-64
2023/03/15 11:57:40;;;;;;;2.75;1.55;;;10.00;1.00;;;;;;5102543;28;20062;-64
2023/03/15 12:00:50;;;;;;;2.78;1.40;;;9.80;1.00;;;;;;5126754;28;20060;-64
2023/03/15 12:03:33;;;;;;;5.75;1.77;;;9.60;1.00;;;;;;5099215;28;20050;-64
2023/03/15 12:06:19;;;;;;;2.38;1.30;;;9.60;1.00;;;;;;5087535;28;20302;-64
2023/03/15 12:08:52;;;;;;;1.80;1.30;;;9.80;1.00;;;;;;5114530;28;20047;-65
2023/03/15 12:11:23;;;;;;;2.85;1.48;;;10.20;1.00;;;;;;5098212;28;20039;-64
2023/03/15 12:13:58;;;;;;;3.58;1.52;;;10.00;1.00;;;;;;5101491;28;20039;-64
2023/03/15 12:16:47;;;;;;;1.73;1.23;;;9.90;99.90;;;;;;5100313;28;20414;-64
2023/03/15 12:19:21;;;;;;;2.55;1.42;;;10.20;99.90;;;;;;5118298;28;20473;-65
2023/03/15 12:21:59;;;;;;;;;;;10.20;99.90;;;;;;5118876;28;20037;-64
2023/03/15 12:24:38;;;;;;;2.30;1.30;;;10.10;99.90;;;;;;5101916;28;19922;-64
2023/03/15 12:27:17;;;;;;;4.57;1.40;;;11.00;99.90;;;;;;5119768;28;20313;-64
2023/03/15 12:29:59;;;;;;;2.85;1.42;;;10.80;99.90;;;;;;5106567;28;20030;-65
2023/03/15 12:32:48;;;;;;;3.03;1.60;;;10.60;99.90;;;;;;5116220;28;20034;-64
2023/03/15 12:35:23;;;;;;;2.38;1.40;;;10.30;99.90;;;;;;5101453;28;20057;-64
2023/03/15 12:38:00;;;;;;;2.47;1.58;;;10.60;99.90;;;;;;5117945;28;20042;-64
2023/03/15 12:40:51;;;;;;;2.28;1.77;;;11.00;99.90;;;;;;5118462;28;20041;-65
2023/03/15 12:43:46;;;;;;;2.95;1.95;;;11.30;99.90;;;;;;5128976;28;20488;-64
2023/03/15 12:46:40;;;;;;;3.53;2.30;;;11.90;99.90;;;;;;5116115;28;20061;-64
2023/03/15 12:49:28;;;;;;;5.57;1.80;;;12.50;99.90;;;;;;5117119;28;20046;-64
2023/03/15 12:52:30;;;;;;;3.63;1.52;;;12.50;99.90;;;;;;5096261;29;20050;-64
2023/03/15 12:55:21;;;;;;;3.40;1.83;;;12.50;99.90;;;;;;5080267;28;20110;-64
2023/03/15 12:57:59;;;;;;;5.55;1.85;;;11.20;99.90;;;;;;5107531;28;20321;-64
2023/03/15 13:00:34;;;;;;;3.85;1.70;;;11.00;99.90;;;;;;5097099;28;20403;-64
2023/03/15 13:03:20;;;;;;;3.17;2.05;;;11.10;75.10;;;;;;5132316;28;20038;-64
2023/03/15 13:06:11;;;;;;;3.05;2.00;;;11.30;99.90;;;;;;5122301;28;20047;-64
2023/03/15 13:09:22;;;;;;;4.50;1.85;;;11.50;33.20;;;;;;5132453;28;20038;-64
2023/03/15 13:12:10;;;;;;;3.72;1.73;;;11.80;99.90;;;;;;5116053;28;20038;-64
2023/03/15 13:15:04;;;;;;;3.88;1.85;;;11.40;1.00;;;;;;5117906;28;20034;-64
2023/03/15 13:17:56;;;;;;;3.15;2.15;;;11.40;1.00;;;;;;5117738;28;20047;-65
2023/03/15 13:21:00;;;;;;;4.43;2.40;;;10.40;1.00;;;;;;5100602;28;20054;-64
2023/03/15 13:23:33;;;;;;;3.47;2.08;;;10.20;1.00;;;;;;5129984;28;20050;-64
2023/03/15 13:26:51;;;;;;;3.97;1.50;;;9.60;1.00;;;;;;5133803;28;20053;-65
2023/03/15 13:29:31;;;;;;;2.30;1.98;;;9.20;1.00;;;;;;5116748;28;20045;-64
2023/03/15 13:32:18;;;;;;;4.38;1.73;;;9.20;1.00;;;;;;5112990;28;20050;-65
2023/03/15 13:34:55;;;;;;;1.70;1.50;;;9.50;1.00;;;;;;5114096;28;20039;-65
2023/03/15 13:37:29;;;;;;;2.47;1.80;;;9.50;1.00;;;;;;5132256;28;20034;-64
2023/03/15 13:40:10;;;;;;;2.97;1.70;;;9.70;1.00;;;;;;5100756;28;20178;-65
2023/03/15 13:42:44;;;;;;;1.63;1.52;;;9.50;1.00;;;;;;5099407;28;20261;-65
2023/03/15 13:45:16;;;;;;;1.70;1.55;;;9.40;1.00;;;;;;5097584;28;20047;-64
2023/03/15 13:47:51;;;;;;;3.15;1.83;;;9.60;1.00;;;;;;5100875;28;20343;-64
2023/03/15 13:50:22;;;;;;;2.50;2.22;;;9.60;1.00;;;;;;5131903;28;20039;-64
2023/03/15 13:52:57;;;;;;;6.65;1.55;;;9.50;1.00;;;;;;5116229;28;20349;-65
2023/03/15 13:55:34;;;;;;;6.05;1.75;;;9.20;1.00;;;;;;5100014;28;20321;-63
2023/03/15 13:58:08;;;;;;;3.40;1.70;;;9.90;1.00;;;;;;5131878;28;20027;-66